Metar z pełnej godziny Komunikat METAR ze strony awiacja.imgw.pl Metar G00 EPLL METAR EPLL 221400Z 27018KT 240V300 9999 BKN045 15/04 Q1016 =